sensor_id;sensor_type;location;lat;lon;timestamp;pressure;altitude;pressure_sealevel;temperature;humidity
32759;BME280;19125;52.360;9.974;2023-07-02T00:01:10;26552.53;;;-145.17;69.80
32759;BME280;19125;52.360;9.974;2023-07-02T00:03:37;26052.16;;;-145.17;70.01
32759;BME280;19125;52.360;9.974;2023-07-02T00:06:02;26302.34;;;-145.17;70.05
32759;BME280;19125;52.360;9.974;2023-07-02T00:08:28;27053.00;;;-145.17;69.75
32759;BME280;19125;52.360;9.974;2023-07-02T00:10:53;26802.75;;;-145.17;69.75
32759;BME280;19125;52.360;9.974;2023-07-02T00:13:18;29305.81;;;-145.17;69.79
32759;BME280;19125;52.360;9.974;2023-07-02T00:15:44;29556.22;;;-145.17;69.51
32759;BME280;19125;52.360;9.974;2023-07-02T00:18:09;30808.44;;;-145.17;69.44
32759;BME280;19125;52.360;9.974;2023-07-02T00:20:34;32061.03;;;-145.17;69.43
32759;BME280;19125;52.360;9.974;2023-07-02T00:23:06;34316.75;;;-145.17;69.26
32759;BME280;19125;52.360;9.974;2023-07-02T00:25:34;35821.28;;;-145.17;68.96
32759;BME280;19125;52.360;9.974;2023-07-02T00:27:59;37577.28;;;-145.17;69.00
32759;BME280;19125;52.360;9.974;2023-07-02T00:30:24;39585.13;;;-145.17;68.48
32759;BME280;19125;52.360;9.974;2023-07-02T00:32:50;41342.81;;;-145.17;68.53
32759;BME280;19125;52.360;9.974;2023-07-02T00:35:15;43855.16;;;-145.17;68.15
32759;BME280;19125;52.360;9.974;2023-07-02T00:37:40;46369.13;;;-145.17;68.24
32759;BME280;19125;52.360;9.974;2023-07-02T00:40:06;49388.00;;;-145.17;67.93
32759;BME280;19125;52.360;9.974;2023-07-02T00:42:32;50143.06;;;-145.17;67.97
32759;BME280;19125;52.360;9.974;2023-07-02T00:44:57;52409.16;;;-145.17;67.89
32759;BME280;19125;52.360;9.974;2023-07-02T00:47:28;53416.72;;;-145.17;67.68
32759;BME280;19125;52.360;9.974;2023-07-02T00:49:54;51905.47;;;-145.17;67.94
32759;BME280;19125;52.360;9.974;2023-07-02T00:52:20;51905.47;;;-145.17;68.21
32759;BME280;19125;52.360;9.974;2023-07-02T00:54:46;52157.31;;;-145.17;67.75
32759;BME280;19125;52.360;9.974;2023-07-02T00:57:11;52409.16;;;-145.17;67.64
32759;BME280;19125;52.360;9.974;2023-07-02T00:59:36;51653.66;;;-145.17;67.87
32759;BME280;19125;52.360;9.974;2023-07-02T01:02:04;51150.06;;;-145.17;68.12
32759;BME280;19125;52.360;9.974;2023-07-02T01:04:30;50898.28;;;-145.17;68.26
32759;BME280;19125;52.360;9.974;2023-07-02T01:06:56;50143.06;;;-145.17;68.26
32759;BME280;19125;52.360;9.974;2023-07-02T01:09:23;49388.00;;;-145.17;68.11
32759;BME280;19125;52.360;9.974;2023-07-02T01:11:54;48633.06;;;-145.17;68.13
32759;BME280;19125;52.360;9.974;2023-07-02T01:14:22;48129.84;;;-145.17;68.20
32759;BME280;19125;52.360;9.974;2023-07-02T01:16:49;48129.84;;;-145.17;68.32
32759;BME280;19125;52.360;9.974;2023-07-02T01:19:20;47878.28;;;-145.17;68.36
32759;BME280;19125;52.360;9.974;2023-07-02T01:21:47;46872.09;;;-145.17;68.30
32759;BME280;19125;52.360;9.974;2023-07-02T01:24:13;47375.16;;;-145.17;68.40
32759;BME280;19125;52.360;9.974;2023-07-02T01:26:39;46620.59;;;-145.17;68.56
32759;BME280;19125;52.360;9.974;2023-07-02T01:31:39;45614.78;;;-145.17;68.69
32759;BME280;19125;52.360;9.974;2023-07-02T01:34:05;44357.84;;;-145.17;68.95
32759;BME280;19125;52.360;9.974;2023-07-02T01:36:32;43603.84;;;-145.17;68.95
32759;BME280;19125;52.360;9.974;2023-07-02T01:38:58;43352.56;;;-145.17;68.74
32759;BME280;19125;52.360;9.974;2023-07-02T01:41:24;42598.78;;;-145.17;68.80
32759;BME280;19125;52.360;9.974;2023-07-02T01:43:49;43352.56;;;-145.17;68.67
32759;BME280;19125;52.360;9.974;2023-07-02T01:46:14;42850.03;;;-145.17;68.91
32759;BME280;19125;52.360;9.974;2023-07-02T01:48:40;41091.66;;;-145.17;69.00
32759;BME280;19125;52.360;9.974;2023-07-02T01:51:05;41091.66;;;-145.17;68.91
32759;BME280;19125;52.360;9.974;2023-07-02T01:53:31;39334.09;;;-145.17;69.14
32759;BME280;19125;52.360;9.974;2023-07-02T01:55:56;39585.13;;;-145.17;69.21
32759;BME280;19125;52.360;9.974;2023-07-02T01:58:22;37828.22;;;-145.17;69.69
32759;BME280;19125;52.360;9.974;2023-07-02T02:00:47;36322.91;;;-145.17;69.67
32759;BME280;19125;52.360;9.974;2023-07-02T02:03:13;35068.94;;;-145.17;69.78
32759;BME280;19125;52.360;9.974;2023-07-02T02:05:38;34316.75;;;-145.17;69.45
32759;BME280;19125;52.360;9.974;2023-07-02T02:08:03;33815.38;;;-145.17;69.61
32759;BME280;19125;52.360;9.974;2023-07-02T02:10:29;34066.06;;;-145.17;69.48
32759;BME280;19125;52.360;9.974;2023-07-02T02:12:54;34316.75;;;-145.17;69.45
32759;BME280;19125;52.360;9.974;2023-07-02T02:15:19;33815.38;;;-145.17;69.27
32759;BME280;19125;52.360;9.974;2023-07-02T02:17:45;33815.38;;;-145.17;69.33
32759;BME280;19125;52.360;9.974;2023-07-02T02:20:11;34316.75;;;-145.17;69.38
32759;BME280;19125;52.360;9.974;2023-07-02T02:22:36;35068.94;;;-145.17;69.51
32759;BME280;19125;52.360;9.974;2023-07-02T02:25:02;34818.19;;;-145.17;69.25
32759;BME280;19125;52.360;9.974;2023-07-02T02:27:28;36072.09;;;-145.17;69.41
32759;BME280;19125;52.360;9.974;2023-07-02T02:29:54;36824.63;;;-145.17;69.04
32759;BME280;19125;52.360;9.974;2023-07-02T02:32:19;36824.63;;;-145.17;68.94
32759;BME280;19125;52.360;9.974;2023-07-02T02:34:46;37577.28;;;-145.17;69.16
32759;BME280;19125;52.360;9.974;2023-07-02T02:37:11;36824.63;;;-145.17;69.08
32759;BME280;19125;52.360;9.974;2023-07-02T02:39:37;37577.28;;;-145.17;68.95
32759;BME280;19125;52.360;9.974;2023-07-02T02:42:03;38330.09;;;-145.17;69.07
32759;BME280;19125;52.360;9.974;2023-07-02T02:44:28;39585.13;;;-145.17;69.02
32759;BME280;19125;52.360;9.974;2023-07-02T02:46:54;39585.13;;;-145.17;68.89
32759;BME280;19125;52.360;9.974;2023-07-02T02:49:20;39585.13;;;-145.17;68.83
32759;BME280;19125;52.360;9.974;2023-07-02T02:51:45;39585.13;;;-145.17;69.07
32759;BME280;19125;52.360;9.974;2023-07-02T02:54:10;39083.06;;;-145.17;68.93
32759;BME280;19125;52.360;9.974;2023-07-02T02:56:36;39334.09;;;-145.17;68.93
32759;BME280;19125;52.360;9.974;2023-07-02T02:59:01;39334.09;;;-145.17;69.05
32759;BME280;19125;52.360;9.974;2023-07-02T03:01:27;39083.06;;;-145.17;68.91
32759;BME280;19125;52.360;9.974;2023-07-02T03:03:55;38581.06;;;-145.17;69.02
32759;BME280;19125;52.360;9.974;2023-07-02T03:06:20;37326.38;;;-145.17;69.10
32759;BME280;19125;52.360;9.974;2023-07-02T03:08:45;36322.91;;;-145.17;69.29
32759;BME280;19125;52.360;9.974;2023-07-02T03:11:11;36322.91;;;-145.17;69.28
32759;BME280;19125;52.360;9.974;2023-07-02T03:13:36;35821.28;;;-145.17;69.36
32759;BME280;19125;52.360;9.974;2023-07-02T03:16:02;35068.94;;;-145.17;69.34
32759;BME280;19125;52.360;9.974;2023-07-02T03:18:27;34818.19;;;-145.17;69.65
32759;BME280;19125;52.360;9.974;2023-07-02T03:20:52;33815.38;;;-145.17;69.36
32759;BME280;19125;52.360;9.974;2023-07-02T03:23:18;33564.69;;;-145.17;69.61
32759;BME280;19125;52.360;9.974;2023-07-02T03:25:43;32562.19;;;-145.17;69.38
32759;BME280;19125;52.360;9.974;2023-07-02T03:28:08;32562.19;;;-145.17;69.73
32759;BME280;19125;52.360;9.974;2023-07-02T03:30:35;32311.59;;;-145.17;69.59
32759;BME280;19125;52.360;9.974;2023-07-02T03:33:00;32812.78;;;-145.17;69.45
32759;BME280;19125;52.360;9.974;2023-07-02T03:35:26;32061.03;;;-145.17;69.29
32759;BME280;19125;52.360;9.974;2023-07-02T03:37:51;33063.41;;;-145.17;69.40
32759;BME280;19125;52.360;9.974;2023-07-02T03:40:16;33314.06;;;-145.17;69.57
32759;BME280;19125;52.360;9.974;2023-07-02T03:42:43;33564.69;;;-145.17;69.27
32759;BME280;19125;52.360;9.974;2023-07-02T03:45:08;35068.94;;;-145.17;69.33
32759;BME280;19125;52.360;9.974;2023-07-02T03:47:34;34567.47;;;-145.17;69.14
32759;BME280;19125;52.360;9.974;2023-07-02T03:49:59;35068.94;;;-145.17;69.29
32759;BME280;19125;52.360;9.974;2023-07-02T03:52:24;36072.09;;;-145.17;69.12
32759;BME280;19125;52.360;9.974;2023-07-02T03:54:50;36573.75;;;-145.17;68.91
32759;BME280;19125;52.360;9.974;2023-07-02T03:57:15;37075.50;;;-145.17;69.05
32759;BME280;19125;52.360;9.974;2023-07-02T03:59:41;37828.22;;;-145.17;68.85
32759;BME280;19125;52.360;9.974;2023-07-02T04:02:06;39083.06;;;-145.17;68.75
32759;BME280;19125;52.360;9.974;2023-07-02T04:04:31;39585.13;;;-145.17;68.66
32759;BME280;19125;52.360;9.974;2023-07-02T04:06:56;40589.41;;;-145.17;68.64
32759;BME280;19125;52.360;9.974;2023-07-02T04:09:22;40589.41;;;-145.17;68.82
32759;BME280;19125;52.360;9.974;2023-07-02T04:11:47;40589.41;;;-145.17;68.74
32759;BME280;19125;52.360;9.974;2023-07-02T04:14:13;39836.16;;;-145.17;68.69
32759;BME280;19125;52.360;9.974;2023-07-02T04:16:38;38581.06;;;-145.17;68.80
32759;BME280;19125;52.360;9.974;2023-07-02T04:19:03;39083.06;;;-145.17;68.75
32759;BME280;19125;52.360;9.974;2023-07-02T04:21:29;38079.16;;;-145.17;68.99
32759;BME280;19125;52.360;9.974;2023-07-02T04:23:55;37577.28;;;-145.17;69.23
32759;BME280;19125;52.360;9.974;2023-07-02T04:26:21;36824.63;;;-145.17;69.09
32759;BME280;19125;52.360;9.974;2023-07-02T04:28:46;35570.47;;;-145.17;69.32
32759;BME280;19125;52.360;9.974;2023-07-02T04:31:11;34567.47;;;-145.17;69.28
32759;BME280;19125;52.360;9.974;2023-07-02T04:33:37;34818.19;;;-145.17;69.10
32759;BME280;19125;52.360;9.974;2023-07-02T04:36:03;35821.28;;;-145.17;69.01
32759;BME280;19125;52.360;9.974;2023-07-02T04:38:28;36072.09;;;-145.17;69.20
32759;BME280;19125;52.360;9.974;2023-07-02T04:40:54;37577.28;;;-145.17;69.05
32759;BME280;19125;52.360;9.974;2023-07-02T04:43:19;39585.13;;;-145.17;68.54
32759;BME280;19125;52.360;9.974;2023-07-02T04:45:44;41845.16;;;-145.17;68.35
32759;BME280;19125;52.360;9.974;2023-07-02T04:48:10;44609.19;;;-145.17;68.21
32759;BME280;19125;52.360;9.974;2023-07-02T04:50:35;48129.84;;;-145.17;67.83
32759;BME280;19125;52.360;9.974;2023-07-02T04:53:01;54424.56;;;-145.17;67.03
32759;BME280;19125;52.360;9.974;2023-07-02T04:55:27;61991.44;;;-145.17;66.72
32759;BME280;19125;52.360;9.974;2023-07-02T04:57:52;74352.00;;;-145.17;65.99
32759;BME280;19125;52.360;9.974;2023-07-02T05:00:18;81903.28;;;-145.17;64.92
32759;BME280;19125;52.360;9.974;2023-07-02T05:02:44;84978.94;;;-145.17;64.49
32759;BME280;19125;52.360;9.974;2023-07-02T05:05:09;86056.28;;;-145.17;64.08
32759;BME280;19125;52.360;9.974;2023-07-02T05:07:34;86496.84;;;-145.17;63.62
32759;BME280;19125;52.360;9.974;2023-07-02T05:10:00;86572.25;;;-145.17;63.82
32759;BME280;19125;52.360;9.974;2023-07-02T05:12:25;86637.75;;;-145.17;63.70
32759;BME280;19125;52.360;9.974;2023-07-02T05:14:50;86615.91;;;-145.17;63.90
32759;BME280;19125;52.360;9.974;2023-07-02T05:17:15;86584.16;;;-145.17;64.12
32759;BME280;19125;52.360;9.974;2023-07-02T05:19:41;86564.31;;;-145.17;64.07
32759;BME280;19125;52.360;9.974;2023-07-02T05:22:08;86381.72;;;-145.17;64.51
32759;BME280;19125;52.360;9.974;2023-07-02T05:24:33;86125.75;;;-145.17;64.70
32759;BME280;19125;52.360;9.974;2023-07-02T05:26:58;85746.75;;;-145.17;65.05
32759;BME280;19125;52.360;9.974;2023-07-02T05:29:24;85002.75;;;-145.17;65.33
32759;BME280;19125;52.360;9.974;2023-07-02T05:31:49;83997.09;;;-145.17;65.61
32759;BME280;19125;52.360;9.974;2023-07-02T05:34:14;82850.91;;;-145.17;66.04
32759;BME280;19125;52.360;9.974;2023-07-02T05:36:40;80821.09;;;-145.17;66.00
32759;BME280;19125;52.360;9.974;2023-07-02T05:39:05;79097.38;;;-145.17;66.33
32759;BME280;19125;52.360;9.974;2023-07-02T05:41:30;78730.91;;;-145.17;66.45
32759;BME280;19125;52.360;9.974;2023-07-02T05:44:02;79961.13;;;-145.17;66.04
32759;BME280;19125;52.360;9.974;2023-07-02T05:46:27;81586.13;;;-145.17;65.80
32759;BME280;19125;52.360;9.974;2023-07-02T05:48:52;83594.50;;;-145.17;65.41
32759;BME280;19125;52.360;9.974;2023-07-02T05:51:21;85078.13;;;-145.17;64.84
32759;BME280;19125;52.360;9.974;2023-07-02T05:53:47;86113.84;;;-145.17;64.33
32759;BME280;19125;52.360;9.974;2023-07-02T05:56:12;86627.81;;;-145.17;63.80
32759;BME280;19125;52.360;9.974;2023-07-02T05:58:38;86814.38;;;-145.17;63.51
32759;BME280;19125;52.360;9.974;2023-07-02T06:01:03;86941.38;;;-145.17;62.68
32759;BME280;19125;52.360;9.974;2023-07-02T06:03:30;87018.81;;;-145.17;62.04
32759;BME280;19125;52.360;9.974;2023-07-02T06:05:55;86961.25;;;-145.17;61.62
32759;BME280;19125;52.360;9.974;2023-07-02T06:08:20;87004.91;;;-145.17;61.49
32759;BME280;19125;52.360;9.974;2023-07-02T06:10:47;86983.06;;;-145.17;61.53
32759;BME280;19125;52.360;9.974;2023-07-02T06:13:12;86921.53;;;-145.17;61.51
32759;BME280;19125;52.360;9.974;2023-07-02T06:15:38;86840.16;;;-145.17;60.88
32759;BME280;19125;52.360;9.974;2023-07-02T06:18:04;86764.75;;;-145.17;60.08
32759;BME280;19125;52.360;9.974;2023-07-02T06:20:29;86611.94;;;-145.17;59.06
32759;BME280;19125;52.360;9.974;2023-07-02T06:22:54;86518.66;;;-145.17;58.66
32759;BME280;19125;52.360;9.974;2023-07-02T06:25:20;86415.47;;;-145.17;58.10
32759;BME280;19125;52.360;9.974;2023-07-02T06:27:45;86338.06;;;-145.17;57.42
32759;BME280;19125;52.360;9.974;2023-07-02T06:30:11;86242.81;;;-145.17;56.65
32759;BME280;19125;52.360;9.974;2023-07-02T06:32:37;86244.81;;;-145.17;56.47
32759;BME280;19125;52.360;9.974;2023-07-02T06:35:02;86191.22;;;-145.17;56.45
32759;BME280;19125;52.360;9.974;2023-07-02T06:37:28;86163.44;;;-145.17;55.67
32759;BME280;19125;52.360;9.974;2023-07-02T06:39:53;86038.44;;;-145.17;54.35
32759;BME280;19125;52.360;9.974;2023-07-02T06:42:18;85990.81;;;-145.17;53.69
32759;BME280;19125;52.360;9.974;2023-07-02T06:44:44;85842.00;;;-145.17;52.20
32759;BME280;19125;52.360;9.974;2023-07-02T06:47:09;85794.38;;;-145.17;50.69
32759;BME280;19125;52.360;9.974;2023-07-02T06:49:34;85738.81;;;-145.17;50.33
32759;BME280;19125;52.360;9.974;2023-07-02T06:52:00;85728.88;;;-145.17;49.31
32759;BME280;19125;52.360;9.974;2023-07-02T06:54:26;85738.81;;;-145.17;49.18
32759;BME280;19125;52.360;9.974;2023-07-02T06:56:51;85720.97;;;-145.17;49.40
32759;BME280;19125;52.360;9.974;2023-07-02T06:59:23;85697.16;;;-145.17;49.31
32759;BME280;19125;52.360;9.974;2023-07-02T07:01:50;85683.25;;;-145.17;48.53
32759;BME280;19125;52.360;9.974;2023-07-02T07:04:15;85637.63;;;-145.17;47.66
32759;BME280;19125;52.360;9.974;2023-07-02T07:06:41;85613.81;;;-145.17;45.01
32759;BME280;19125;52.360;9.974;2023-07-02T07:09:07;85595.97;;;-145.17;44.91
32759;BME280;19125;52.360;9.974;2023-07-02T07:11:33;85568.19;;;-145.17;44.51
32759;BME280;19125;52.360;9.974;2023-07-02T07:13:58;85584.06;;;-145.17;44.07
32759;BME280;19125;52.360;9.974;2023-07-02T07:16:23;85546.34;;;-145.17;44.89
32759;BME280;19125;52.360;9.974;2023-07-02T07:18:49;85562.22;;;-145.17;44.86
32759;BME280;19125;52.360;9.974;2023-07-02T07:21:14;85536.44;;;-145.17;44.91
32759;BME280;19125;52.360;9.974;2023-07-02T07:23:40;85524.53;;;-145.17;45.44
32759;BME280;19125;52.360;9.974;2023-07-02T07:26:06;85465.00;;;-145.17;44.69
32759;BME280;19125;52.360;9.974;2023-07-02T07:28:31;85496.75;;;-145.17;43.74
32759;BME280;19125;52.360;9.974;2023-07-02T07:30:56;85520.56;;;-145.17;44.06
32759;BME280;19125;52.360;9.974;2023-07-02T07:33:22;85538.41;;;-145.17;43.65
32759;BME280;19125;52.360;9.974;2023-07-02T07:35:47;85544.38;;;-145.17;43.91
32759;BME280;19125;52.360;9.974;2023-07-02T07:38:13;85554.28;;;-145.17;44.33
32759;BME280;19125;52.360;9.974;2023-07-02T07:40:40;85510.63;;;-145.17;44.44
32759;BME280;19125;52.360;9.974;2023-07-02T07:43:05;85496.75;;;-145.17;43.10
32759;BME280;19125;52.360;9.974;2023-07-02T07:45:31;85480.88;;;-145.17;42.25
32759;BME280;19125;52.360;9.974;2023-07-02T07:47:56;85468.97;;;-145.17;42.04
32759;BME280;19125;52.360;9.974;2023-07-02T07:50:21;85455.09;;;-145.17;42.25
32759;BME280;19125;52.360;9.974;2023-07-02T07:52:47;85528.50;;;-145.17;42.23
32759;BME280;19125;52.360;9.974;2023-07-02T07:55:13;85496.75;;;-145.17;42.00
32759;BME280;19125;52.360;9.974;2023-07-02T07:57:38;85496.75;;;-145.17;41.87
32759;BME280;19125;52.360;9.974;2023-07-02T08:00:05;85504.69;;;-145.17;41.50
32759;BME280;19125;52.360;9.974;2023-07-02T08:02:34;85492.78;;;-145.17;40.64
32759;BME280;19125;52.360;9.974;2023-07-02T08:05:00;85474.94;;;-145.17;40.09
32759;BME280;19125;52.360;9.974;2023-07-02T08:07:25;85445.16;;;-145.17;40.07
32759;BME280;19125;52.360;9.974;2023-07-02T08:09:50;85468.97;;;-145.17;40.63
32759;BME280;19125;52.360;9.974;2023-07-02T08:12:16;85548.34;;;-145.17;40.73
32759;BME280;19125;52.360;9.974;2023-07-02T08:14:41;85544.38;;;-145.17;41.43
32759;BME280;19125;52.360;9.974;2023-07-02T08:17:06;85560.25;;;-145.17;41.38
32759;BME280;19125;52.360;9.974;2023-07-02T08:19:32;85556.28;;;-145.17;41.81
32759;BME280;19125;52.360;9.974;2023-07-02T08:21:57;85556.28;;;-145.17;42.05
32759;BME280;19125;52.360;9.974;2023-07-02T08:24:22;85552.31;;;-145.17;41.48
32759;BME280;19125;52.360;9.974;2023-07-02T08:26:48;85526.50;;;-145.17;40.73
32759;BME280;19125;52.360;9.974;2023-07-02T08:29:15;85528.50;;;-145.17;40.41
32759;BME280;19125;52.360;9.974;2023-07-02T08:31:40;85540.41;;;-145.17;40.20
32759;BME280;19125;52.360;9.974;2023-07-02T08:34:06;85546.34;;;-145.17;40.47
32759;BME280;19125;52.360;9.974;2023-07-02T08:36:32;85520.56;;;-145.17;39.97
32759;BME280;19125;52.360;9.974;2023-07-02T08:38:57;85518.56;;;-145.17;40.23
32759;BME280;19125;52.360;9.974;2023-07-02T08:41:22;85496.75;;;-145.17;39.90
32759;BME280;19125;52.360;9.974;2023-07-02T08:43:49;85468.97;;;-145.17;38.79
32759;BME280;19125;52.360;9.974;2023-07-02T08:46:15;85457.06;;;-145.17;38.87
32759;BME280;19125;52.360;9.974;2023-07-02T08:48:41;85433.25;;;-145.17;38.49
32759;BME280;19125;52.360;9.974;2023-07-02T08:51:07;85425.31;;;-145.17;38.35
32759;BME280;19125;52.360;9.974;2023-07-02T08:53:32;85449.13;;;-145.17;37.64
32759;BME280;19125;52.360;9.974;2023-07-02T08:56:00;85334.06;;;-145.17;36.53
32759;BME280;19125;52.360;9.974;2023-07-02T08:58:25;85336.03;;;-145.17;35.94
32759;BME280;19125;52.360;9.974;2023-07-02T09:03:32;85381.69;;;-145.17;35.78
32759;BME280;19125;52.360;9.974;2023-07-02T09:05:58;85417.38;;;-145.17;36.59
32759;BME280;19125;52.360;9.974;2023-07-02T09:08:27;85385.66;;;-145.17;36.93
32759;BME280;19125;52.360;9.974;2023-07-02T09:10:53;85338.03;;;-145.17;36.97
32759;BME280;19125;52.360;9.974;2023-07-02T09:13:18;85266.59;;;-145.17;35.63
32759;BME280;19125;52.360;9.974;2023-07-02T09:15:43;85240.81;;;-145.17;34.58
32759;BME280;19125;52.360;9.974;2023-07-02T09:18:20;85191.22;;;-145.17;33.18
32759;BME280;19125;52.360;9.974;2023-07-02T09:20:46;85228.91;;;-145.17;32.89
32759;BME280;19125;52.360;9.974;2023-07-02T09:23:12;85222.97;;;-145.17;32.76
32759;BME280;19125;52.360;9.974;2023-07-02T09:25:39;85179.31;;;-145.17;32.62
32759;BME280;19125;52.360;9.974;2023-07-02T09:28:22;85187.25;;;-145.17;32.86
32759;BME280;19125;52.360;9.974;2023-07-02T09:30:58;85147.56;;;-145.17;32.40
32759;BME280;19125;52.360;9.974;2023-07-02T09:33:24;85103.94;;;-145.17;32.88
32759;BME280;19125;52.360;9.974;2023-07-02T09:35:50;85129.72;;;-145.17;32.31
32759;BME280;19125;52.360;9.974;2023-07-02T09:38:17;85119.81;;;-145.17;32.50
32759;BME280;19125;52.360;9.974;2023-07-02T09:40:51;85127.75;;;-145.17;32.18
32759;BME280;19125;52.360;9.974;2023-07-02T09:43:19;85201.13;;;-145.17;32.54
32759;BME280;19125;52.360;9.974;2023-07-02T09:45:48;85238.84;;;-145.17;32.06
32759;BME280;19125;52.360;9.974;2023-07-02T09:48:16;85276.53;;;-145.17;32.86
32759;BME280;19125;52.360;9.974;2023-07-02T09:50:43;85310.25;;;-145.17;33.43
32759;BME280;19125;52.360;9.974;2023-07-02T09:53:10;85252.72;;;-145.17;33.53
32759;BME280;19125;52.360;9.974;2023-07-02T09:55:36;85222.97;;;-145.17;33.15
32759;BME280;19125;52.360;9.974;2023-07-02T09:58:02;85173.38;;;-145.17;32.40
32759;BME280;19125;52.360;9.974;2023-07-02T10:00:28;85143.59;;;-145.17;32.08
32759;BME280;19125;52.360;9.974;2023-07-02T10:02:53;85111.88;;;-145.17;31.42
32759;BME280;19125;52.360;9.974;2023-07-02T10:05:29;85072.19;;;-145.17;30.93
32759;BME280;19125;52.360;9.974;2023-07-02T10:08:00;85133.69;;;-145.17;31.32
32759;BME280;19125;52.360;9.974;2023-07-02T10:10:36;85169.41;;;-145.17;31.35
32759;BME280;19125;52.360;9.974;2023-07-02T10:13:01;85127.75;;;-145.17;31.78
32759;BME280;19125;52.360;9.974;2023-07-02T10:15:28;85099.97;;;-145.17;30.58
32759;BME280;19125;52.360;9.974;2023-07-02T10:17:58;85090.03;;;-145.17;31.09
32759;BME280;19125;52.360;9.974;2023-07-02T10:20:37;85097.97;;;-145.17;31.04
32759;BME280;19125;52.360;9.974;2023-07-02T10:23:09;85123.78;;;-145.17;30.76
32759;BME280;19125;52.360;9.974;2023-07-02T10:25:36;85179.31;;;-145.17;30.97
32759;BME280;19125;52.360;9.974;2023-07-02T10:28:16;85254.72;;;-145.17;31.07
32759;BME280;19125;52.360;9.974;2023-07-02T10:30:42;85242.81;;;-145.17;30.39
32759;BME280;19125;52.360;9.974;2023-07-02T10:33:11;85197.16;;;-145.17;30.39
32759;BME280;19125;52.360;9.974;2023-07-02T10:35:38;85149.56;;;-145.17;30.38
32759;BME280;19125;52.360;9.974;2023-07-02T10:38:05;85179.31;;;-145.17;30.52
32759;BME280;19125;52.360;9.974;2023-07-02T10:40:31;85143.59;;;-145.17;30.98
32759;BME280;19125;52.360;9.974;2023-07-02T10:42:59;85103.94;;;-145.17;30.41
32759;BME280;19125;52.360;9.974;2023-07-02T10:45:35;85028.53;;;-145.17;29.92
32759;BME280;19125;52.360;9.974;2023-07-02T10:48:08;84947.22;;;-145.17;30.17
32759;BME280;19125;52.360;9.974;2023-07-02T10:50:35;84921.41;;;-145.17;29.50
32759;BME280;19125;52.360;9.974;2023-07-02T10:53:01;84885.72;;;-145.17;29.56
32759;BME280;19125;52.360;9.974;2023-07-02T10:55:26;84812.31;;;-145.17;29.23
32759;BME280;19125;52.360;9.974;2023-07-02T10:58:09;84782.56;;;-145.17;29.05
32759;BME280;19125;52.360;9.974;2023-07-02T11:05:43;84897.63;;;-145.17;29.31
32759;BME280;19125;52.360;9.974;2023-07-02T11:08:09;84943.25;;;-145.17;29.56
32759;BME280;19125;52.360;9.974;2023-07-02T11:10:34;84865.88;;;-145.17;29.60
32759;BME280;19125;52.360;9.974;2023-07-02T11:13:10;84842.06;;;-145.17;29.29
32759;BME280;19125;52.360;9.974;2023-07-02T11:15:36;84857.94;;;-145.17;29.51
32759;BME280;19125;52.360;9.974;2023-07-02T11:18:12;84885.72;;;-145.17;29.41
32759;BME280;19125;52.360;9.974;2023-07-02T11:20:42;84893.66;;;-145.17;29.26
32759;BME280;19125;52.360;9.974;2023-07-02T11:23:24;84893.66;;;-145.17;29.82
32759;BME280;19125;52.360;9.974;2023-07-02T11:26:00;84846.03;;;-145.17;29.29
32759;BME280;19125;52.360;9.974;2023-07-02T11:28:27;84828.19;;;-145.17;29.50
32759;BME280;19125;52.360;9.974;2023-07-02T11:30:53;84796.44;;;-145.17;29.24
32759;BME280;19125;52.360;9.974;2023-07-02T11:33:20;84798.44;;;-145.17;29.40
32759;BME280;19125;52.360;9.974;2023-07-02T11:35:46;84794.47;;;-145.17;29.58
32759;BME280;19125;52.360;9.974;2023-07-02T11:38:11;84806.38;;;-145.17;29.42
32759;BME280;19125;52.360;9.974;2023-07-02T11:40:37;84848.03;;;-145.17;29.27
32759;BME280;19125;52.360;9.974;2023-07-02T11:43:03;84861.91;;;-145.17;29.50
32759;BME280;19125;52.360;9.974;2023-07-02T11:45:28;84941.25;;;-145.17;29.25
32759;BME280;19125;52.360;9.974;2023-07-02T11:47:54;84994.81;;;-145.17;30.11
32759;BME280;19125;52.360;9.974;2023-07-02T11:50:19;85018.63;;;-145.17;29.98
32759;BME280;19125;52.360;9.974;2023-07-02T11:52:45;85066.25;;;-145.17;30.20
32759;BME280;19125;52.360;9.974;2023-07-02T11:55:10;85030.53;;;-145.17;30.41
32759;BME280;19125;52.360;9.974;2023-07-02T11:57:35;85064.25;;;-145.17;31.05
32759;BME280;19125;52.360;9.974;2023-07-02T12:00:01;85012.69;;;-145.17;30.15
32759;BME280;19125;52.360;9.974;2023-07-02T12:02:26;85036.47;;;-145.17;30.55
32759;BME280;19125;52.360;9.974;2023-07-02T12:04:51;84994.81;;;-145.17;30.15
32759;BME280;19125;52.360;9.974;2023-07-02T12:07:17;84976.97;;;-145.17;30.16
32759;BME280;19125;52.360;9.974;2023-07-02T12:09:42;85002.75;;;-145.17;29.84
32759;BME280;19125;52.360;9.974;2023-07-02T12:12:07;85024.56;;;-145.17;29.72
32759;BME280;19125;52.360;9.974;2023-07-02T12:14:33;84947.22;;;-145.17;30.07
32759;BME280;19125;52.360;9.974;2023-07-02T12:16:58;84893.66;;;-145.17;29.86
32759;BME280;19125;52.360;9.974;2023-07-02T12:19:24;84897.63;;;-145.17;29.82
32759;BME280;19125;52.360;9.974;2023-07-02T12:21:49;84810.34;;;-145.17;30.07
32759;BME280;19125;52.360;9.974;2023-07-02T12:24:14;84850.00;;;-145.17;28.97
32759;BME280;19125;52.360;9.974;2023-07-02T12:26:40;84869.84;;;-145.17;29.16
32759;BME280;19125;52.360;9.974;2023-07-02T12:29:06;84889.69;;;-145.17;29.21
32759;BME280;19125;52.360;9.974;2023-07-02T12:31:31;84850.00;;;-145.17;28.97
32759;BME280;19125;52.360;9.974;2023-07-02T12:33:57;84852.00;;;-145.17;29.15
32759;BME280;19125;52.360;9.974;2023-07-02T12:36:23;84746.84;;;-145.17;29.47
32759;BME280;19125;52.360;9.974;2023-07-02T12:38:48;84742.88;;;-145.17;28.97
32759;BME280;19125;52.360;9.974;2023-07-02T12:41:14;84877.78;;;-145.17;28.91
32759;BME280;19125;52.360;9.974;2023-07-02T12:43:39;84844.06;;;-145.17;29.67
32759;BME280;19125;52.360;9.974;2023-07-02T12:46:05;84852.00;;;-145.17;29.00